createdAt,value
2019-05-20T00:01:32.645Z,43.17
2019-05-20T00:04:03.211Z,54.00
2019-05-20T00:06:34.207Z,49.77
2019-05-20T00:09:05.950Z,51.80
2019-05-20T00:11:36.270Z,46.23
2019-05-20T00:14:06.466Z,55.80
2019-05-20T00:16:39.591Z,62.07
2019-05-20T00:19:09.808Z,52.00
2019-05-20T00:21:40.426Z,55.30
2019-05-20T00:24:11.939Z,50.97
2019-05-20T00:26:42.669Z,58.67
2019-05-20T00:29:12.885Z,48.63
2019-05-20T00:31:43.105Z,50.37
2019-05-20T00:34:13.569Z,59.67
2019-05-20T00:36:44.312Z,56.83
2019-05-20T00:39:20.974Z,51.33
2019-05-20T00:41:51.656Z,50.83
2019-05-20T00:44:22.247Z,49.93
2019-05-20T00:46:52.830Z,53.27
2019-05-20T00:49:23.273Z,45.80
2019-05-20T00:51:53.580Z,49.60
2019-05-20T00:54:24.251Z,50.10
2019-05-20T00:56:54.711Z,48.07
2019-05-20T00:59:25.534Z,44.23
2019-05-20T01:01:56.021Z,42.80
2019-05-20T01:04:26.974Z,45.40
2019-05-20T01:06:57.618Z,47.00
2019-05-20T01:09:27.892Z,47.53
2019-05-20T01:12:17.137Z,47.73
2019-05-20T01:14:47.439Z,38.83
2019-05-20T01:17:17.760Z,46.93
2019-05-20T01:19:48.006Z,41.53
2019-05-20T01:22:18.316Z,41.23
2019-05-20T01:24:48.647Z,42.50
2019-05-20T01:27:19.261Z,45.37
2019-05-20T01:29:49.457Z,38.00
2019-05-20T01:32:19.765Z,39.90
2019-05-20T01:34:50.023Z,40.60
2019-05-20T01:37:20.725Z,39.90
2019-05-20T01:39:51.271Z,39.90
2019-05-20T01:42:21.448Z,35.57
2019-05-20T01:44:52.019Z,37.20
2019-05-20T01:47:22.589Z,36.40
2019-05-20T01:49:53.106Z,35.67
2019-05-20T01:52:23.262Z,36.47
2019-05-20T01:54:53.425Z,41.97
2019-05-20T01:57:24.028Z,35.07
2019-05-20T01:59:54.687Z,34.27
2019-05-20T02:02:25.135Z,31.70
2019-05-20T02:04:56.260Z,34.53
2019-05-20T02:07:26.599Z,35.47
2019-05-20T02:09:57.286Z,36.30
2019-05-20T02:12:27.999Z,37.83
2019-05-20T02:15:04.102Z,32.37
2019-05-20T02:17:34.327Z,36.77
2019-05-20T02:20:05.357Z,33.07
2019-05-20T02:22:36.147Z,33.93
2019-05-20T02:25:06.667Z,31.00
2019-05-20T02:27:36.921Z,31.27
2019-05-20T02:30:08.553Z,31.93
2019-05-20T02:32:38.847Z,33.00
2019-05-20T02:35:09.466Z,34.23
2019-05-20T02:37:40.141Z,32.63
2019-05-20T02:40:11.265Z,31.57
2019-05-20T02:42:41.859Z,31.87
2019-05-20T02:45:12.613Z,33.27
2019-05-20T02:47:42.720Z,30.27
2019-05-20T02:50:13.238Z,33.70
2019-05-20T02:52:43.852Z,30.43
2019-05-20T02:55:14.558Z,29.37
2019-05-20T02:57:45.040Z,30.53
2019-05-20T03:00:16.144Z,29.80
2019-05-20T03:02:46.330Z,32.23
2019-05-20T03:05:16.530Z,29.43
2019-05-20T03:07:46.766Z,30.50
2019-05-20T03:10:17.480Z,31.50
2019-05-20T03:12:47.759Z,25.60
2019-05-20T03:15:17.947Z,30.23
2019-05-20T03:17:48.248Z,29.63
2019-05-20T03:20:18.891Z,29.80
2019-05-20T03:22:49.186Z,26.40
2019-05-20T03:25:19.891Z,32.70
2019-05-20T03:27:50.212Z,29.53
2019-05-20T03:30:20.537Z,33.20
2019-05-20T03:32:50.725Z,31.17
2019-05-20T03:35:20.934Z,28.53
2019-05-20T03:37:51.142Z,30.53
2019-05-20T03:40:21.390Z,30.77
2019-05-20T03:42:51.693Z,30.77
2019-05-20T03:45:22.354Z,30.17
2019-05-20T03:47:53.033Z,31.33
2019-05-20T03:50:23.226Z,31.83
2019-05-20T03:52:53.520Z,34.07
2019-05-20T03:55:24.183Z,30.13
2019-05-20T03:57:54.466Z,32.37
2019-05-20T04:00:42.783Z,30.93
2019-05-20T04:03:13.267Z,32.13
2019-05-20T04:05:44.143Z,34.37
2019-05-20T04:08:14.629Z,29.20
2019-05-20T04:10:44.837Z,30.50
2019-05-20T04:13:15.057Z,33.87
2019-05-20T04:15:45.408Z,32.87
2019-05-20T04:18:15.632Z,32.93
2019-05-20T04:20:45.878Z,34.77
2019-05-20T04:23:16.141Z,35.37
2019-05-20T04:25:46.427Z,38.50
2019-05-20T04:28:17.036Z,36.25
2019-05-20T04:30:48.342Z,39.10
2019-05-20T04:33:18.528Z,38.57
2019-05-20T04:35:49.870Z,37.60
2019-05-20T04:38:20.232Z,33.73
2019-05-20T04:40:50.784Z,35.40
2019-05-20T04:43:21.080Z,34.13
2019-05-20T04:45:51.779Z,31.17
2019-05-20T04:48:22.831Z,35.50
2019-05-20T04:50:53.008Z,35.07
2019-05-20T04:53:23.727Z,33.30
2019-05-20T04:55:53.900Z,36.80
2019-05-20T04:58:24.219Z,33.27
2019-05-20T05:00:56.139Z,32.17
2019-05-20T05:03:26.873Z,33.27
2019-05-20T05:05:57.548Z,32.20
2019-05-20T05:08:27.747Z,38.43
2019-05-20T05:10:57.978Z,37.37
2019-05-20T05:13:28.160Z,39.70
2019-05-20T05:15:58.344Z,37.20
2019-05-20T05:18:28.581Z,31.80
2019-05-20T05:20:59.266Z,38.13
2019-05-20T05:23:29.844Z,37.53
2019-05-20T05:26:00.161Z,33.13
2019-05-20T05:28:30.709Z,36.53
2019-05-20T05:31:01.345Z,33.77
2019-05-20T05:33:31.988Z,36.17
2019-05-20T05:36:02.557Z,31.80
2019-05-20T05:38:33.046Z,31.67
2019-05-20T05:41:03.940Z,34.97
2019-05-20T05:43:34.216Z,35.97
2019-05-20T05:46:04.445Z,39.00
2019-05-20T05:48:34.976Z,38.13
2019-05-20T05:51:05.174Z,33.53
2019-05-20T05:53:35.864Z,34.57
2019-05-20T05:56:06.091Z,36.77
2019-05-20T05:58:36.646Z,36.70
2019-05-20T06:01:07.252Z,32.63
2019-05-20T06:03:37.592Z,35.27
2019-05-20T06:06:13.171Z,30.10
2019-05-20T06:08:39.832Z,29.77
2019-05-20T06:11:10.092Z,32.87
2019-05-20T06:13:40.882Z,38.00
2019-05-20T06:16:11.210Z,25.93
2019-05-20T06:18:41.511Z,31.30
2019-05-20T06:21:11.759Z,35.13
2019-05-20T06:23:41.977Z,36.57
2019-05-20T06:26:12.338Z,32.90
2019-05-20T06:28:42.863Z,35.83
2019-05-20T06:31:13.045Z,36.40
2019-05-20T06:33:43.626Z,38.83
2019-05-20T06:36:26.496Z,40.47
2019-05-20T06:38:55.328Z,37.67
2019-05-20T06:41:25.609Z,32.50
2019-05-20T06:43:55.819Z,36.17
2019-05-20T06:46:26.061Z,28.80
2019-05-20T06:48:56.355Z,26.07
2019-05-20T06:51:26.549Z,30.17
2019-05-20T06:53:57.237Z,35.27
2019-05-20T06:56:27.811Z,26.13
2019-05-20T06:58:58.401Z,31.93
2019-05-20T07:01:41.957Z,25.77
2019-05-20T07:04:12.571Z,25.80
2019-05-20T07:06:47.227Z,27.67
2019-05-20T07:09:14.629Z,29.83
2019-05-20T07:11:52.593Z,28.80
2019-05-20T07:14:18.254Z,24.67
2019-05-20T07:16:48.478Z,27.17
2019-05-20T07:19:18.727Z,25.90
2019-05-20T07:21:48.921Z,28.90
2019-05-20T07:24:19.528Z,27.70
2019-05-20T07:26:49.786Z,28.07
2019-05-20T07:29:20.404Z,30.63
2019-05-20T07:31:50.610Z,31.67
2019-05-20T07:34:21.103Z,30.70
2019-05-20T07:37:02.722Z,28.17
2019-05-20T07:39:23.884Z,30.57
2019-05-20T07:41:54.092Z,30.23
2019-05-20T07:44:24.295Z,27.23
2019-05-20T07:46:54.748Z,27.03
2019-05-20T07:49:25.748Z,28.77
2019-05-20T07:51:57.127Z,26.93
2019-05-20T07:54:27.920Z,24.50
2019-05-20T07:57:01.602Z,22.73
2019-05-20T07:59:33.616Z,24.40
2019-05-20T08:02:05.745Z,22.93
2019-05-20T08:04:36.013Z,20.47
2019-05-20T08:07:26.161Z,21.73
2019-05-20T08:09:45.253Z,21.50
2019-05-20T08:12:11.510Z,18.57
2019-05-20T08:14:42.158Z,22.67
2019-05-20T08:17:12.375Z,22.07
2019-05-20T08:19:42.585Z,21.70
2019-05-20T08:22:13.140Z,18.37
2019-05-20T08:24:43.501Z,23.30
2019-05-20T08:27:14.038Z,26.13
2019-05-20T08:29:44.584Z,21.70
2019-05-20T08:32:15.059Z,19.07
2019-05-20T08:34:45.299Z,23.63
2019-05-20T08:37:15.982Z,23.10
2019-05-20T08:39:46.699Z,24.00
2019-05-20T08:42:17.195Z,21.87
2019-05-20T08:44:47.884Z,25.57
2019-05-20T08:47:18.048Z,25.03
2019-05-20T08:49:48.694Z,19.37
2019-05-20T08:52:20.213Z,20.77
2019-05-20T08:54:50.399Z,19.20
2019-05-20T08:57:20.606Z,18.13
2019-05-20T08:59:53.014Z,17.93
2019-05-20T09:02:23.297Z,19.70
2019-05-20T09:04:53.527Z,18.90
2019-05-20T09:07:23.767Z,18.33
2019-05-20T09:09:54.393Z,22.67
2019-05-20T09:12:24.744Z,22.20
2019-05-20T09:14:55.025Z,19.60
2019-05-20T09:17:25.633Z,20.10
2019-05-20T09:19:55.816Z,25.67
2019-05-20T09:22:26.023Z,25.80
2019-05-20T09:24:57.090Z,20.77
2019-05-20T09:27:27.717Z,19.40
2019-05-20T09:29:58.439Z,20.63
2019-05-20T09:32:29.069Z,21.43
2019-05-20T09:34:59.717Z,16.63
2019-05-20T09:37:29.943Z,14.90
2019-05-20T09:40:00.537Z,15.67
2019-05-20T09:42:30.716Z,17.10
2019-05-20T09:45:03.236Z,19.07
2019-05-20T09:47:33.207Z,17.17
2019-05-20T09:50:03.515Z,18.90
2019-05-20T09:52:33.737Z,18.50
2019-05-20T09:55:04.920Z,18.33
2019-05-20T09:57:38.499Z,20.03
2019-05-20T10:00:09.773Z,17.97
2019-05-20T10:02:40.298Z,18.97
2019-05-20T10:05:11.368Z,16.30
2019-05-20T10:07:41.875Z,17.87
2019-05-20T10:10:12.342Z,14.90
2019-05-20T10:12:46.667Z,14.03
2019-05-20T10:15:14.615Z,12.67
2019-05-20T10:17:44.831Z,11.20
2019-05-20T10:20:15.765Z,15.17
2019-05-20T10:25:49.708Z,15.97
2019-05-20T10:28:19.990Z,19.40
2019-05-20T10:30:50.282Z,17.33
2019-05-20T10:33:41.363Z,19.87
2019-05-20T11:02:56.859Z,12.30
2019-05-20T11:05:27.065Z,12.77
2019-05-20T11:07:57.445Z,14.93
2019-05-20T11:10:28.486Z,13.47
2019-05-20T11:12:58.756Z,19.80
2019-05-20T11:15:28.995Z,17.30
2019-05-20T11:17:59.232Z,18.07
2019-05-20T11:20:29.470Z,17.00
2019-05-20T11:23:01.161Z,17.63
2019-05-20T11:25:32.462Z,18.47
2019-05-20T11:28:03.675Z,18.40
2019-05-20T11:30:33.881Z,18.43
2019-05-20T11:33:04.773Z,16.80
2019-05-20T11:35:35.135Z,18.73
2019-05-20T11:38:05.731Z,20.37
2019-05-20T11:40:36.080Z,19.07
2019-05-20T11:43:06.732Z,20.07
2019-05-20T11:45:37.080Z,22.37
2019-05-20T11:48:07.560Z,19.23
2019-05-20T11:50:37.790Z,19.43
2019-05-20T11:53:08.007Z,16.50
2019-05-20T11:55:38.977Z,21.97
2019-05-20T11:58:15.858Z,19.17
2019-05-20T12:00:41.804Z,16.70
2019-05-20T12:03:12.146Z,15.57
2019-05-20T12:05:43.441Z,15.37
2019-05-20T12:08:13.834Z,17.73
2019-05-20T12:10:44.040Z,17.10
2019-05-20T12:13:15.026Z,16.73
2019-05-20T12:15:45.686Z,19.30
2019-05-20T12:18:16.018Z,17.03
2019-05-20T12:20:46.634Z,14.37
2019-05-20T12:23:16.888Z,14.63
2019-05-20T12:25:47.195Z,12.97
2019-05-20T12:28:17.321Z,14.40
2019-05-20T12:30:47.666Z,14.53
2019-05-20T12:33:19.507Z,15.07
2019-05-20T12:35:49.662Z,12.63
2019-05-20T12:38:20.751Z,15.30
2019-05-20T12:40:50.921Z,14.03
2019-05-20T12:43:21.163Z,13.23
2019-05-20T12:45:51.473Z,11.77
2019-05-20T12:48:21.793Z,12.40
2019-05-20T12:50:52.442Z,12.47
2019-05-20T12:53:22.638Z,12.30
2019-05-20T12:55:52.887Z,12.33
2019-05-20T12:58:23.730Z,11.87
2019-05-20T13:01:23.677Z,11.23
2019-05-20T13:03:55.063Z,12.23
2019-05-20T13:06:25.319Z,12.87
2019-05-20T13:08:55.611Z,12.93
2019-05-20T13:11:26.210Z,14.20
2019-05-20T13:13:56.767Z,12.03
2019-05-20T13:16:26.978Z,11.80
2019-05-20T13:18:57.670Z,10.57
2019-05-20T13:21:27.937Z,12.73
2019-05-20T13:23:58.454Z,11.67
2019-05-20T13:26:28.743Z,11.97
2019-05-20T13:28:59.936Z,12.23
2019-05-20T13:31:30.632Z,13.87
2019-05-20T13:34:00.809Z,13.20
2019-05-20T13:36:31.681Z,14.83
2019-05-20T13:39:02.335Z,13.57
2019-05-20T13:41:32.637Z,12.07
2019-05-20T13:44:03.756Z,15.20
2019-05-20T13:46:34.337Z,13.30
2019-05-20T13:49:04.890Z,13.47
2019-05-20T13:51:38.348Z,15.13
2019-05-20T13:54:07.868Z,14.93
2019-05-20T13:56:38.115Z,16.50
2019-05-20T13:59:08.326Z,16.97
2019-05-20T14:01:38.558Z,13.33
2019-05-20T14:04:09.843Z,14.47
2019-05-20T14:06:40.771Z,14.43
2019-05-20T14:09:10.984Z,13.00
2019-05-20T14:11:41.922Z,13.97
2019-05-20T14:14:14.316Z,14.13
2019-05-20T14:16:44.147Z,14.13
2019-05-20T14:19:14.700Z,15.20
2019-05-20T14:21:44.914Z,14.47
2019-05-20T14:24:18.648Z,13.40
2019-05-20T14:26:50.216Z,12.80
2019-05-20T14:29:20.454Z,12.83
2019-05-20T14:31:51.647Z,10.90
2019-05-20T14:34:21.995Z,9.40
2019-05-20T14:36:53.123Z,10.73
2019-05-20T14:39:23.508Z,11.03
2019-05-20T14:41:53.782Z,12.13
2019-05-20T14:44:24.106Z,11.30
2019-05-20T14:46:54.386Z,13.97
2019-05-20T14:49:24.603Z,14.63
2019-05-20T14:51:54.732Z,12.33
2019-05-20T14:54:25.349Z,13.30
2019-05-20T14:56:56.027Z,16.73
2019-05-20T14:59:26.696Z,19.40
2019-05-20T15:01:56.945Z,22.67
2019-05-20T15:04:29.393Z,24.07
2019-05-20T15:07:00.830Z,23.13
2019-05-20T15:09:31.799Z,24.03
2019-05-20T15:12:02.021Z,21.70
2019-05-20T15:14:32.301Z,21.27
2019-05-20T15:17:02.965Z,24.27
2019-05-20T15:19:33.599Z,23.70
2019-05-20T15:22:04.005Z,24.97
2019-05-20T15:24:34.191Z,23.90
2019-05-20T15:27:04.878Z,24.10
2019-05-20T15:29:35.112Z,25.20
2019-05-20T15:32:05.363Z,24.60
2019-05-20T15:34:35.621Z,22.73
2019-05-20T15:37:06.230Z,22.00
2019-05-20T15:39:37.787Z,19.13
2019-05-20T15:42:08.066Z,21.53
2019-05-20T15:44:38.361Z,23.40
2019-05-20T15:47:08.574Z,20.10
2019-05-20T15:49:38.930Z,25.47
2019-05-20T15:52:09.129Z,18.60
2019-05-20T15:54:39.358Z,22.13
2019-05-20T15:57:09.563Z,21.53
2019-05-20T16:00:27.191Z,22.00
2019-05-20T16:02:57.790Z,22.93
2019-05-20T16:05:28.453Z,20.90
2019-05-20T16:07:58.713Z,24.23
2019-05-20T16:10:29.821Z,21.23
2019-05-20T16:13:00.534Z,23.80
2019-05-20T16:15:30.905Z,23.43
2019-05-20T16:18:01.228Z,21.17
2019-05-20T16:20:31.610Z,23.57
2019-05-20T16:23:02.421Z,20.43
2019-05-20T16:25:32.636Z,22.10
2019-05-20T16:28:03.802Z,23.33
2019-05-20T16:30:34.129Z,22.03
2019-05-20T16:33:04.434Z,20.77
2019-05-20T16:35:35.338Z,24.33
2019-05-20T16:38:05.751Z,19.83
2019-05-20T16:40:36.050Z,17.13
2019-05-20T16:43:06.448Z,20.17
2019-05-20T16:45:36.670Z,17.20
2019-05-20T16:48:06.950Z,19.70
2019-05-20T16:50:37.727Z,19.23
2019-05-20T16:53:08.234Z,17.93
2019-05-20T16:55:38.926Z,18.03
2019-05-20T17:00:44.771Z,17.83
2019-05-20T17:03:15.434Z,14.80
2019-05-20T17:05:46.374Z,17.03
2019-05-20T17:08:16.841Z,15.97
2019-05-20T17:10:47.193Z,15.83
2019-05-20T17:13:17.526Z,13.07
2019-05-20T17:15:48.599Z,15.70
2019-05-20T17:18:18.879Z,14.63
2019-05-20T17:20:49.447Z,14.93
2019-05-20T17:23:19.751Z,15.67
2019-05-20T17:25:50.842Z,17.50
2019-05-20T17:28:21.501Z,15.93
2019-05-20T17:30:51.865Z,15.03
2019-05-20T17:33:22.646Z,15.90
2019-05-20T17:35:52.927Z,14.20
2019-05-20T17:38:23.154Z,16.83
2019-05-20T17:40:53.686Z,19.40
2019-05-20T17:43:24.354Z,17.60
2019-05-20T17:45:54.576Z,17.90
2019-05-20T17:48:24.832Z,18.67
2019-05-20T17:50:55.130Z,17.20
2019-05-20T17:53:25.650Z,20.30
2019-05-20T17:55:56.274Z,19.20
2019-05-20T17:58:27.131Z,19.97
2019-05-20T18:01:12.191Z,16.07
2019-05-20T18:03:29.286Z,16.07
2019-05-20T18:05:59.559Z,16.80
2019-05-20T18:08:31.662Z,18.90
2019-05-20T18:11:01.957Z,14.67
2019-05-20T18:13:32.236Z,14.57
2019-05-20T18:16:02.511Z,15.80
2019-05-20T18:18:33.096Z,14.53
2019-05-20T18:21:03.321Z,14.90
2019-05-20T18:23:33.928Z,16.60
2019-05-20T18:26:04.193Z,16.13
2019-05-20T18:28:34.440Z,14.67
2019-05-20T18:31:05.186Z,13.53
2019-05-20T18:33:35.420Z,14.83
2019-05-20T18:36:05.670Z,16.37
2019-05-20T18:38:35.872Z,16.10
2019-05-20T18:41:06.129Z,14.37
2019-05-20T18:43:36.355Z,18.23
2019-05-20T18:46:06.613Z,18.97
2019-05-20T18:48:37.219Z,17.10
2019-05-20T18:51:07.785Z,15.10
2019-05-20T18:53:38.428Z,14.17
2019-05-20T18:56:08.939Z,14.77
2019-05-20T18:58:39.388Z,20.17
2019-05-20T19:01:09.987Z,16.97
2019-05-20T19:03:40.366Z,21.27
2019-05-20T19:06:10.619Z,17.00
2019-05-20T19:08:41.790Z,15.93
2019-05-20T19:11:12.048Z,17.73
2019-05-20T19:13:42.235Z,17.57
2019-05-20T19:16:12.501Z,17.63
2019-05-20T19:18:42.767Z,18.57
2019-05-20T19:21:12.996Z,15.87
2019-05-20T19:23:43.169Z,16.20
2019-05-20T19:26:24.348Z,13.60
2019-05-20T19:28:46.035Z,16.87
2019-05-20T19:31:16.609Z,17.07
2019-05-20T19:33:46.819Z,14.47
2019-05-20T19:36:17.065Z,16.90
2019-05-20T19:38:47.688Z,14.07
2019-05-20T19:41:17.927Z,19.67
2019-05-20T19:43:48.425Z,15.60
2019-05-20T19:46:18.649Z,17.53
2019-05-20T19:48:49.524Z,18.43
2019-05-20T19:51:20.137Z,21.63
2019-05-20T19:53:50.379Z,22.50
2019-05-20T19:56:20.635Z,16.40
2019-05-20T19:58:50.881Z,19.70
2019-05-20T20:01:21.177Z,20.87
2019-05-20T20:03:51.645Z,19.83
2019-05-20T20:06:21.879Z,17.47
2019-05-20T20:08:52.121Z,16.70
2019-05-20T20:11:22.420Z,20.03
2019-05-20T20:13:54.775Z,18.20
2019-05-20T20:16:25.051Z,18.70
2019-05-20T20:18:55.271Z,17.77
2019-05-20T20:21:25.927Z,20.33
2019-05-20T20:23:56.456Z,19.63
2019-05-20T20:26:26.699Z,18.37
2019-05-20T20:28:57.240Z,24.57
2019-05-20T20:31:27.697Z,20.07
2019-05-20T20:33:58.195Z,20.77
2019-05-20T20:36:28.456Z,23.80
2019-05-20T20:38:59.053Z,22.67
2019-05-20T20:41:29.308Z,22.80
2019-05-20T20:43:59.938Z,22.83
2019-05-20T20:46:30.201Z,22.47
2019-05-20T20:49:00.908Z,21.37
2019-05-20T20:51:31.389Z,22.97
2019-05-20T20:54:01.646Z,21.70
2019-05-20T20:56:34.219Z,20.70
2019-05-20T20:59:03.749Z,20.13
2019-05-20T21:01:34.336Z,20.23
2019-05-20T21:04:04.948Z,21.57
2019-05-20T21:06:35.574Z,20.13
2019-05-20T21:09:06.778Z,21.40
2019-05-20T21:11:36.990Z,21.87
2019-05-20T21:14:07.861Z,20.67
2019-05-20T21:16:38.635Z,24.10
2019-05-20T21:19:08.863Z,19.10
2019-05-20T21:21:38.969Z,22.07
2019-05-20T21:24:09.129Z,24.27
2019-05-20T21:26:39.434Z,25.50
2019-05-20T21:29:09.585Z,21.93
2019-05-20T21:31:39.805Z,27.67
2019-05-20T21:34:10.001Z,21.27
2019-05-20T21:36:47.812Z,24.00
2019-05-20T21:39:12.758Z,25.53
2019-05-20T21:41:42.972Z,22.10
2019-05-20T21:44:13.831Z,24.03
2019-05-20T21:46:44.066Z,23.97
2019-05-20T21:49:14.626Z,23.47
2019-05-20T21:51:45.233Z,24.73
2019-05-20T21:54:15.448Z,21.67
2019-05-20T21:56:45.621Z,20.90
2019-05-20T21:59:15.969Z,20.13
2019-05-20T22:01:46.551Z,20.63
2019-05-20T22:04:17.630Z,21.30
2019-05-20T22:06:48.122Z,25.23
2019-05-20T22:09:18.440Z,21.83
2019-05-20T22:11:49.028Z,25.60
2019-05-20T22:14:19.304Z,24.90
2019-05-20T22:16:49.822Z,22.33
2019-05-20T22:19:20.146Z,24.93
2019-05-20T22:21:58.971Z,24.83
2019-05-20T22:24:29.193Z,21.90
2019-05-20T22:26:59.645Z,22.50
2019-05-20T22:29:29.880Z,25.33
2019-05-20T22:32:00.116Z,22.17
2019-05-20T22:34:30.328Z,27.13
2019-05-20T22:37:00.612Z,26.77
2019-05-20T22:39:30.855Z,23.03
2019-05-20T22:42:01.321Z,23.77
2019-05-20T22:44:31.555Z,26.30
2019-05-20T22:47:01.831Z,22.67
2019-05-20T22:49:32.734Z,20.80
2019-05-20T22:52:03.978Z,19.47
2019-05-20T22:54:34.667Z,21.47
2019-05-20T22:57:04.969Z,23.93
2019-05-20T22:59:35.170Z,27.80
2019-05-20T23:02:05.699Z,20.57
2019-05-20T23:04:36.018Z,20.80
2019-05-20T23:07:06.634Z,22.50
2019-05-20T23:09:36.855Z,22.10
2019-05-20T23:12:07.333Z,22.30
2019-05-20T23:14:37.910Z,25.97
2019-05-20T23:17:08.195Z,22.73
2019-05-20T23:19:38.411Z,21.80
2019-05-20T23:22:08.613Z,25.00
2019-05-20T23:24:38.783Z,23.07
2019-05-20T23:27:09.114Z,23.03
2019-05-20T23:29:39.375Z,24.47
2019-05-20T23:32:09.567Z,22.50
2019-05-20T23:34:39.759Z,22.17
2019-05-20T23:37:10.196Z,26.90
2019-05-20T23:39:40.696Z,21.40
2019-05-20T23:42:11.958Z,21.30
2019-05-20T23:44:42.177Z,21.47
2019-05-20T23:47:12.643Z,22.20
2019-05-20T23:49:42.873Z,24.00
2019-05-20T23:52:13.430Z,19.73
2019-05-20T23:54:44.040Z,20.90
2019-05-20T23:57:14.403Z,21.83
2019-05-20T23:59:44.697Z,21.37
